Time;durP1;ratioP1;P1;durP2;ratioP2;P2;SDS_P1;SDS_P2;PMS_P1;PMS_P2;Temp;Humidity;BMP_temperature;BMP_pressure;BME280_temperature;BME280_humidity;BME280_pressure;Samples;Min_cycle;Max_cycle;Signal;HPM_P1;HPM_P2
2023/05/30 04:01:46;;;;;;;;;;;15.20;99.90;;;;;;5365768;23;19926;-65
2023/05/30 04:04:11;;;;;;;;;;;15.20;99.90;;;;;;4996297;28;19909;-64
2023/05/30 04:06:37;;;;;;;;;;;15.20;99.90;;;;;;4995932;28;20001;-64
2023/05/30 04:09:03;;;;;;;;;;;15.10;99.90;;;;;;4995890;28;20325;-64
2023/05/30 04:11:29;;;;;;;;;;;15.10;99.90;;;;;;4995888;28;19910;-64
2023/05/30 04:13:55;;;;;;;;;;;15.10;99.90;;;;;;4994891;28;19957;-66
2023/05/30 04:16:20;;;;;;;;;;;15.00;99.90;;;;;;4995620;28;19967;-66
2023/05/30 04:18:47;;;;;;;;;;;15.00;99.90;;;;;;4995618;28;19906;-67
2023/05/30 04:21:13;;;;;;;;;;;15.00;99.90;;;;;;4994031;28;19906;-67
2023/05/30 04:23:40;;;;;;;;;;;15.00;99.90;;;;;;4995296;28;20410;-67
2023/05/30 04:26:06;;;;;;;;;;;14.90;99.90;;;;;;4995545;28;20376;-67
2023/05/30 04:28:32;;;;;;;;;;;15.00;99.90;;;;;;4995297;28;19906;-67
2023/05/30 04:30:58;;;;;;;;;;;15.00;99.90;;;;;;4989789;28;19913;-67
2023/05/30 04:33:24;;;;;;;;;;;15.10;99.90;;;;;;4993521;28;19995;-66
2023/05/30 04:35:50;;;;;;;;;;;15.00;99.90;;;;;;4994699;28;19905;-67
2023/05/30 04:38:20;;;;;;;;;;;15.00;99.90;;;;;;4994142;28;19996;-67
2023/05/30 04:40:48;;;;;;;;;;;15.10;99.90;;;;;;4995236;28;19906;-66
2023/05/30 04:43:14;;;;;;;;;;;15.10;99.90;;;;;;4995114;28;19906;-67
2023/05/30 04:45:41;;;;;;;;;;;15.20;99.90;;;;;;4994160;28;19912;-67
2023/05/30 04:48:07;;;;;;;;;;;15.20;99.90;;;;;;4994060;28;20358;-66
2023/05/30 04:50:32;;;;;;;;;;;15.20;99.90;;;;;;4995572;28;19918;-67
2023/05/30 04:52:58;;;;;;;;;;;15.20;99.90;;;;;;4993348;28;20294;-68
2023/05/30 04:55:24;;;;;;;;;;;15.20;99.90;;;;;;4987611;28;19906;-68
2023/05/30 04:57:49;;;;;;;;;;;15.20;99.90;;;;;;4994998;28;19976;-67
2023/05/30 05:00:15;;;;;;;;;;;15.20;99.90;;;;;;4996436;28;19905;-67
2023/05/30 05:02:41;;;;;;;;;;;15.20;99.90;;;;;;4995952;28;20366;-67
2023/05/30 05:05:07;;;;;;;;;;;15.20;99.90;;;;;;4994536;28;20378;-66
2023/05/30 05:07:33;;;;;;;;;;;15.30;99.90;;;;;;4993080;28;19906;-68
2023/05/30 05:09:58;;;;;;;;;;;15.40;99.90;;;;;;4994759;28;19992;-68
2023/05/30 05:12:23;;;;;;;;;;;15.40;99.60;;;;;;4992915;28;20412;-68
2023/05/30 05:14:53;;;;;;;;;;;15.50;99.10;;;;;;4994914;28;19906;-68
2023/05/30 05:17:18;;;;;;;;;;;15.50;99.20;;;;;;4994734;28;19909;-68
2023/05/30 05:19:44;;;;;;;;;;;15.60;99.00;;;;;;4994732;28;19906;-68
2023/05/30 05:22:10;;;;;;;;;;;15.60;98.90;;;;;;4993605;28;20260;-67
2023/05/30 05:24:44;;;;;;;;;;;15.70;98.90;;;;;;4995247;28;19966;-69
2023/05/30 05:27:10;;;;;;;;;;;15.70;98.60;;;;;;4995322;28;19906;-66
2023/05/30 05:29:35;;;;;;;;;;;15.80;98.50;;;;;;4993554;28;19905;-66
2023/05/30 05:32:00;;;;;;;;;;;15.70;98.40;;;;;;4995058;28;19913;-66
2023/05/30 05:34:26;;;;;;;;;;;15.80;98.30;;;;;;4994901;28;19909;-64
2023/05/30 05:36:51;;;;;;;;;;;15.80;98.10;;;;;;4995305;28;19944;-65
2023/05/30 05:39:17;;;;;;;;;;;15.90;98.00;;;;;;4993459;28;19948;-66
2023/05/30 05:41:42;;;;;;;;;;;15.90;97.80;;;;;;4995062;28;19906;-65
2023/05/30 05:44:08;;;;;;;;;;;16.10;97.70;;;;;;4994487;28;19948;-67
2023/05/30 05:46:33;;;;;;;;;;;16.10;97.20;;;;;;4995018;28;20351;-66
2023/05/30 05:48:59;;;;;;;;;;;16.20;97.00;;;;;;4995329;28;20335;-69
2023/05/30 05:51:24;;;;;;;;;;;16.30;96.90;;;;;;4994971;28;20060;-66
2023/05/30 05:53:50;;;;;;;;;;;16.30;96.90;;;;;;4995084;28;19956;-66
2023/05/30 05:56:15;;;;;;;;;;;16.40;96.60;;;;;;4994459;28;20325;-65
2023/05/30 05:58:41;;;;;;;;;;;16.50;96.20;;;;;;4994093;28;19910;-67
2023/05/30 06:01:07;;;;;;;;;;;16.40;96.40;;;;;;4993836;28;19923;-66
2023/05/30 06:03:32;;;;;;;;;;;16.50;96.30;;;;;;4994678;28;19906;-69
2023/05/30 06:05:57;;;;;;;;;;;16.50;96.00;;;;;;4993234;28;19906;-69
2023/05/30 06:08:23;;;;;;;;;;;16.50;95.90;;;;;;4993120;28;19912;-67
2023/05/30 06:10:48;;;;;;;;;;;16.60;95.80;;;;;;4992980;28;19913;-69
2023/05/30 06:13:14;;;;;;;;;;;16.70;95.70;;;;;;4994266;28;19905;-69
2023/05/30 06:15:40;;;;;;;;;;;16.90;95.50;;;;;;4998243;28;19935;-70
2023/05/30 06:18:05;;;;;;;;;;;16.90;95.30;;;;;;4999665;28;20362;-70
2023/05/30 06:20:31;;;;;;;;;;;16.80;95.50;;;;;;4999249;28;19935;-66
2023/05/30 06:22:56;;;;;;;;;;;16.70;95.80;;;;;;4999945;28;19928;-71
2023/05/30 06:25:22;;;;;;;;;;;16.70;95.90;;;;;;4999510;28;19928;-65
2023/05/30 06:27:48;;;;;;;;;;;16.80;95.90;;;;;;4997895;28;19945;-68
2023/05/30 06:30:13;;;;;;;;;;;16.90;95.80;;;;;;4998403;28;20278;-67
2023/05/30 06:32:39;;;;;;;;;;;17.00;95.50;;;;;;4998572;28;20274;-66
2023/05/30 06:35:04;;;;;;;;;;;17.20;95.30;;;;;;4998940;28;19912;-66
2023/05/30 06:37:30;;;;;;;;;;;17.30;95.40;;;;;;4998571;28;19961;-66
2023/05/30 06:39:55;;;;;;;;;;;17.40;95.20;;;;;;4997828;28;20409;-66
2023/05/30 06:42:21;;;;;;;;;;;17.50;95.00;;;;;;4997766;28;20325;-69
2023/05/30 06:44:46;;;;;;;;;;;17.60;94.80;;;;;;4998327;28;20381;-67
2023/05/30 06:47:12;;;;;;;;;;;17.50;95.10;;;;;;4997928;28;19945;-67
2023/05/30 06:49:37;;;;;;;;;;;17.60;95.20;;;;;;4997708;28;19905;-65
2023/05/30 06:52:03;;;;;;;;;;;17.60;95.10;;;;;;4998190;28;19905;-66
2023/05/30 06:54:28;;;;;;;;;;;17.80;95.00;;;;;;4998359;28;20438;-66
2023/05/30 06:56:54;;;;;;;;;;;18.00;94.70;;;;;;4997468;28;19909;-66
2023/05/30 06:59:19;;;;;;;;;;;18.30;94.30;;;;;;4997474;28;19910;-66
2023/05/30 07:01:45;;;;;;;;;;;18.40;94.10;;;;;;4997532;28;19917;-68
2023/05/30 07:04:11;;;;;;;;;;;18.40;93.80;;;;;;4997521;28;19925;-65
2023/05/30 07:06:36;;;;;;;;;;;18.40;93.90;;;;;;4997573;28;19906;-69
2023/05/30 07:09:02;;;;;;;;;;;18.50;93.20;;;;;;4998161;28;19906;-68
2023/05/30 07:11:28;;;;;;;;;;;18.50;93.30;;;;;;4997635;28;20039;-69
2023/05/30 07:13:53;;;;;;;;;;;18.60;93.30;;;;;;4997000;28;19952;-66
2023/05/30 07:16:19;;;;;;;;;;;18.90;92.80;;;;;;4997391;28;20381;-67
2023/05/30 07:18:44;;;;;;;;;;;19.00;92.60;;;;;;4997777;28;19909;-66
2023/05/30 07:21:10;;;;;;;;;;;19.00;92.30;;;;;;4995879;28;19925;-66
2023/05/30 07:23:35;;;;;;;;;;;19.10;92.20;;;;;;4997396;28;19906;-66
2023/05/30 07:26:01;;;;;;;;;;;19.10;91.70;;;;;;4997437;28;20397;-65
2023/05/30 07:28:26;;;;;;;;;;;19.10;91.50;;;;;;4997018;28;19997;-64
2023/05/30 07:30:52;;;;;;;;;;;19.10;91.30;;;;;;4997501;28;19905;-67
2023/05/30 07:33:17;;;;;;;;;;;19.00;91.30;;;;;;4997634;28;19918;-70
2023/05/30 07:35:43;;;;;;;;;;;18.90;91.40;;;;;;4997624;28;19948;-68
2023/05/30 07:38:08;;;;;;;;;;;18.90;91.20;;;;;;4997683;28;19909;-67
2023/05/30 07:40:34;;;;;;;;;;;19.00;91.30;;;;;;4997838;28;19905;-67
2023/05/30 07:42:59;;;;;;;;;;;19.20;91.50;;;;;;4998800;28;19905;-70
2023/05/30 07:45:25;;;;;;;;;;;19.40;91.10;;;;;;4998812;28;19906;-69
2023/05/30 07:47:50;;;;;;;;;;;19.60;90.90;;;;;;4997424;28;19909;-69
2023/05/30 07:50:16;;;;;;;;;;;19.80;90.60;;;;;;4998228;28;19906;-68
2023/05/30 07:52:41;;;;;;;;;;;20.00;90.40;;;;;;4999507;28;19956;-69
2023/05/30 07:55:07;;;;;;;;;;;20.30;90.10;;;;;;4998277;28;20366;-68
2023/05/30 07:57:32;;;;;;;;;;;20.40;88.80;;;;;;4998295;28;20358;-67
2023/05/30 07:59:58;;;;;;;;;;;20.40;88.60;;;;;;4999378;28;20389;-69
2023/05/30 08:02:25;;;;;;;;;;;20.50;88.70;;;;;;4998403;28;20005;-70
2023/05/30 08:04:52;;;;;;;;;;;20.40;88.10;;;;;;4998713;28;19913;-69
2023/05/30 08:07:17;;;;;;;;;;;20.40;88.20;;;;;;4997872;28;19930;-67
2023/05/30 08:09:43;;;;;;;;;;;20.60;87.60;;;;;;4997687;28;19905;-67
2023/05/30 08:12:15;;;;;;;;;;;20.90;86.60;;;;;;4997471;28;19905;-67
2023/05/30 08:14:40;;;;;;;;;;;21.20;86.10;;;;;;4996616;28;19913;-67
2023/05/30 08:17:06;;;;;;;;;;;21.60;84.60;;;;;;4997626;28;19909;-67
2023/05/30 08:19:32;;;;;;;;;;;22.20;83.50;;;;;;4998062;28;19949;-67
2023/05/30 08:21:58;;;;;;;;;;;22.20;82.70;;;;;;4996944;28;19931;-68
2023/05/30 08:24:23;;;;;;;;;;;22.50;81.90;;;;;;4996398;28;19953;-68
2023/05/30 08:26:49;;;;;;;;;;;23.40;80.10;;;;;;4996076;28;19912;-68
2023/05/30 08:29:14;;;;;;;;;;;24.00;78.30;;;;;;4995654;28;19988;-67
2023/05/30 08:31:40;;;;;;;;;;;24.60;77.70;;;;;;4995691;28;20212;-67
2023/05/30 08:34:05;;;;;;;;;;;25.60;74.80;;;;;;4995448;28;20359;-67
2023/05/30 08:36:32;;;;;;;;;;;26.20;72.60;;;;;;4995561;28;19921;-67
2023/05/30 08:38:58;;;;;;;;;;;27.20;70.70;;;;;;4995636;28;19906;-67
2023/05/30 08:41:23;;;;;;;;;;;28.40;67.90;;;;;;4995841;28;19913;-67
2023/05/30 08:43:49;;;;;;;;;;;28.70;66.80;;;;;;4995971;28;19992;-67
2023/05/30 08:46:16;;;;;;;;;;;29.20;64.20;;;;;;4996050;28;19906;-66
2023/05/30 08:48:42;;;;;;;;;;;28.90;63.90;;;;;;4997240;28;19949;-66
2023/05/30 08:51:11;;;;;;;;;;;29.80;62.50;;;;;;4996957;28;19908;-66
2023/05/30 08:53:40;;;;;;;;;;;29.50;61.20;;;;;;4996289;28;19906;-66
2023/05/30 08:56:10;;;;;;;;;;;29.60;61.70;;;;;;4995140;28;20278;-66
2023/05/30 08:58:43;;;;;;;;;;;30.10;60.70;;;;;;4995642;28;19913;-66
2023/05/30 09:01:10;;;;;;;;;;;30.00;60.40;;;;;;4996969;28;19913;-67
2023/05/30 09:03:36;;;;;;;;;;;29.50;60.20;;;;;;4994927;28;19916;-67
2023/05/30 09:06:02;;;;;;;;;;;30.00;59.60;;;;;;4995816;28;19909;-66
2023/05/30 09:08:28;;;;;;;;;;;30.40;59.00;;;;;;4995672;28;19912;-66
2023/05/30 09:10:56;;;;;;;;;;;30.20;58.50;;;;;;4995815;28;19928;-67
2023/05/30 09:13:22;;;;;;;;;;;31.00;58.70;;;;;;4994544;28;20013;-66
2023/05/30 09:15:47;;;;;;;;;;;32.00;57.50;;;;;;4995686;28;19945;-66
2023/05/30 09:18:13;;;;;;;;;;;32.10;56.80;;;;;;4996931;28;19910;-66
2023/05/30 09:20:39;;;;;;;;;;;33.10;55.90;;;;;;4995300;28;19913;-66
2023/05/30 09:23:07;;;;;;;;;;;33.50;55.00;;;;;;4995834;28;19905;-66
2023/05/30 09:25:43;;;;;;;;;;;32.50;54.90;;;;;;4996036;28;19906;-66
2023/05/30 09:28:09;;;;;;;;;;;31.50;55.90;;;;;;4996001;28;19913;-67
2023/05/30 09:30:34;;;;;;;;;;;31.70;55.60;;;;;;4994933;28;19905;-67
2023/05/30 09:33:03;;;;;;;;;;;31.10;56.40;;;;;;4994732;28;20371;-67
2023/05/30 09:35:28;;;;;;;;;;;31.60;55.90;;;;;;4994729;28;19910;-67
2023/05/30 09:37:55;;;;;;;;;;;31.00;56.10;;;;;;4995201;28;20004;-67
2023/05/30 09:40:22;;;;;;;;;;;31.70;56.20;;;;;;4994057;28;19949;-67
2023/05/30 09:42:52;;;;;;;;;;;32.40;55.00;;;;;;4994577;28;19949;-67
2023/05/30 09:45:18;;;;;;;;;;;33.30;54.40;;;;;;4994359;28;19928;-68
2023/05/30 09:47:45;;;;;;;;;;;33.60;53.60;;;;;;4994707;28;19916;-67
2023/05/30 09:50:12;;;;;;;;;;;32.90;53.90;;;;;;4994745;28;19906;-67
2023/05/30 09:52:38;;;;;;;;;;;33.60;53.30;;;;;;4995473;28;19906;-67
2023/05/30 09:55:07;;;;;;;;;;;34.20;53.60;;;;;;4998944;28;19956;-67
2023/05/30 09:57:36;;;;;;;;;;;33.30;52.90;;;;;;4998368;28;19909;-67
2023/05/30 10:00:09;;;;;;;;;;;32.60;53.90;;;;;;4998205;28;19952;-67
2023/05/30 10:02:35;;;;;;;;;;;32.70;53.80;;;;;;4998056;28;19918;-67
2023/05/30 10:05:01;;;;;;;;;;;33.00;53.80;;;;;;4997159;28;19948;-67
2023/05/30 10:07:27;;;;;;;;;;;33.30;53.30;;;;;;4998036;28;19906;-68
2023/05/30 10:09:53;;;;;;;;;;;33.80;53.10;;;;;;4998108;28;19996;-67
2023/05/30 10:12:19;;;;;;;;;;;34.10;53.20;;;;;;4997928;28;20000;-68
2023/05/30 10:14:44;;;;;;;;;;;34.70;52.30;;;;;;5019416;23;20009;-69
2023/05/30 10:17:14;;;;;;;;;;;35.20;51.80;;;;;;4998646;28;19964;-69
2023/05/30 10:19:48;;;;;;;;;;;35.20;51.20;;;;;;4998584;28;19912;-69
2023/05/30 10:22:14;;;;;;;;;;;34.90;51.20;;;;;;4998223;28;19916;-68
2023/05/30 10:24:41;;;;;;;;;;;33.50;52.20;;;;;;4997225;28;19906;-68
2023/05/30 10:27:08;;;;;;;;;;;33.00;53.20;;;;;;4998503;28;20358;-68
2023/05/30 10:29:43;;;;;;;;;;;32.80;52.90;;;;;;4998220;28;19952;-68
2023/05/30 10:32:10;;;;;;;;;;;32.50;52.90;;;;;;4997862;28;19906;-68
2023/05/30 10:34:40;;;;;;;;;;;32.30;53.80;;;;;;4997766;28;19912;-68
2023/05/30 10:37:06;;;;;;;;;;;32.70;53.40;;;;;;4998229;28;20269;-68
2023/05/30 10:39:51;;;;;;;;;;;32.40;53.40;;;;;;4998181;28;19912;-69
2023/05/30 10:42:24;;;;;;;;;;;33.00;53.40;;;;;;4997971;28;19912;-68
2023/05/30 10:44:54;;;;;;;;;;;33.50;52.70;;;;;;4998065;28;19913;-68
2023/05/30 10:47:25;;;;;;;;;;;33.80;52.40;;;;;;4998141;28;19906;-68
2023/05/30 10:49:54;;;;;;;;;;;34.30;52.30;;;;;;4998077;28;19906;-69
2023/05/30 10:52:29;;;;;;;;;;;34.40;51.50;;;;;;4997445;28;20289;-69
2023/05/30 10:54:54;;;;;;;;;;;33.30;52.40;;;;;;4997417;28;19906;-68
2023/05/30 10:57:24;;;;;;;;;;;33.20;52.60;;;;;;4997230;28;20016;-68
2023/05/30 10:59:49;;;;;;;;;;;33.40;52.60;;;;;;4997377;28;19913;-67
2023/05/30 11:02:20;;;;;;;;;;;33.50;52.20;;;;;;4998289;28;20269;-68
2023/05/30 11:04:49;;;;;;;;;;;33.70;52.30;;;;;;4997902;28;19937;-68
2023/05/30 11:07:15;;;;;;;;;;;33.60;51.80;;;;;;5002156;28;19910;-68
2023/05/30 11:09:41;;;;;;;;;;;32.00;52.30;;;;;;4998439;28;19910;-68
2023/05/30 11:12:08;;;;;;;;;;;30.10;54.00;;;;;;4998147;28;19927;-68
2023/05/30 11:14:35;;;;;;;;;;;28.30;55.80;;;;;;4997575;28;19917;-69
2023/05/30 11:17:05;;;;;;;;;;;27.50;57.60;;;;;;5000292;28;19909;-68
2023/05/30 11:19:38;;;;;;;;;;;26.70;58.60;;;;;;4996639;28;19906;-68
2023/05/30 11:22:08;;;;;;;;;;;26.10;60.30;;;;;;4996398;28;19909;-69
2023/05/30 11:24:34;;;;;;;;;;;26.00;60.00;;;;;;4997470;28;19916;-69
2023/05/30 11:27:15;;;;;;;;;;;25.80;60.70;;;;;;4997935;28;19905;-68
2023/05/30 11:29:43;;;;;;;;;;;25.50;60.10;;;;;;4995966;28;19913;-68
2023/05/30 11:32:09;;;;;;;;;;;25.50;60.80;;;;;;4997206;28;19921;-68
2023/05/30 11:34:35;;;;;;;;;;;25.60;60.70;;;;;;4997304;28;19906;-69
2023/05/30 11:37:02;;;;;;;;;;;25.30;61.10;;;;;;4997289;28;19986;-69
2023/05/30 11:39:27;;;;;;;;;;;25.20;61.40;;;;;;4997970;28;19905;-69
2023/05/30 11:41:54;;;;;;;;;;;25.10;61.40;;;;;;5003078;28;20336;-68
2023/05/30 11:44:19;;;;;;;;;;;25.20;61.30;;;;;;4996889;28;19905;-68
2023/05/30 11:46:56;;;;;;;;;;;25.10;61.80;;;;;;4998002;28;19906;-68
2023/05/30 11:49:22;;;;;;;;;;;25.10;61.50;;;;;;4997209;28;19909;-68
2023/05/30 11:51:47;;;;;;;;;;;25.10;60.90;;;;;;4995685;28;19905;-69
2023/05/30 11:54:12;;;;;;;;;;;25.20;60.90;;;;;;4996870;28;19960;-68
2023/05/30 11:56:38;;;;;;;;;;;24.90;60.70;;;;;;4996830;28;19910;-68
2023/05/30 11:59:03;;;;;;;;;;;24.90;61.40;;;;;;4996100;28;19910;-68
2023/05/30 12:01:29;;;;;;;;;;;24.80;61.80;;;;;;4996002;28;19905;-69
2023/05/30 12:03:55;;;;;;;;;;;24.90;61.40;;;;;;4994850;28;19912;-69
2023/05/30 12:06:21;;;;;;;;;;;24.90;61.70;;;;;;4996631;28;19913;-69
2023/05/30 12:08:47;;;;;;;;;;;24.90;61.00;;;;;;4996392;28;19906;-69
2023/05/30 12:11:15;;;;;;;;;;;24.90;60.20;;;;;;4996228;28;20077;-69
2023/05/30 12:13:41;;;;;;;;;;;24.90;60.80;;;;;;4994913;28;20274;-68
2023/05/30 12:16:07;;;;;;;;;;;24.80;61.00;;;;;;5001859;28;19960;-68
2023/05/30 12:18:33;;;;;;;;;;;24.70;61.10;;;;;;4998652;28;19906;-68
2023/05/30 12:21:00;;;;;;;;;;;24.60;60.40;;;;;;4994904;28;19909;-69
2023/05/30 12:23:26;;;;;;;;;;;24.60;60.70;;;;;;4996571;28;19906;-69
2023/05/30 12:25:52;;;;;;;;;;;24.60;60.90;;;;;;4997269;28;19928;-67
2023/05/30 12:28:18;;;;;;;;;;;24.70;60.80;;;;;;4985631;28;19910;-67
2023/05/30 12:30:44;;;;;;;;;;;24.70;60.90;;;;;;4986304;28;19921;-68
2023/05/30 12:33:16;;;;;;;;;;;24.80;61.00;;;;;;4984001;28;19984;-68
2023/05/30 12:35:42;;;;;;;;;;;24.90;61.00;;;;;;4976068;28;19910;-69
2023/05/30 12:38:08;;;;;;;;;;;24.90;59.90;;;;;;4977932;28;19917;-68
2023/05/30 12:40:34;;;;;;;;;;;24.90;60.40;;;;;;4985229;28;19909;-68
2023/05/30 12:42:59;;;;;;;;;;;24.90;60.30;;;;;;4996543;28;19956;-66
2023/05/30 12:45:25;;;;;;;;;;;24.90;60.80;;;;;;4992882;28;19921;-66
2023/05/30 12:47:51;;;;;;;;;;;24.90;60.70;;;;;;4993986;28;19997;-66
2023/05/30 12:50:16;;;;;;;;;;;24.90;59.80;;;;;;4995029;28;19933;-65
2023/05/30 12:52:42;;;;;;;;;;;24.90;60.40;;;;;;4996838;28;19949;-67
2023/05/30 12:55:07;;;;;;;;;;;24.80;60.40;;;;;;4995857;28;19912;-68
2023/05/30 12:57:33;;;;;;;;;;;24.90;60.10;;;;;;4998347;28;19921;-69
2023/05/30 12:59:58;;;;;;;;;;;24.90;59.80;;;;;;4999273;28;20330;-68
2023/05/30 13:02:24;;;;;;;;;;;24.90;60.50;;;;;;4995148;28;19910;-68
2023/05/30 13:04:53;;;;;;;;;;;24.90;59.10;;;;;;4998464;28;19905;-68
2023/05/30 13:07:19;;;;;;;;;;;24.70;59.30;;;;;;4994676;28;20278;-68
2023/05/30 13:09:45;;;;;;;;;;;24.80;59.90;;;;;;4995502;28;19906;-68
2023/05/30 13:12:10;;;;;;;;;;;24.80;60.40;;;;;;4996938;28;20260;-69
2023/05/30 13:14:36;;;;;;;;;;;24.90;60.20;;;;;;4997594;28;19913;-69
2023/05/30 13:17:03;;;;;;;;;;;24.90;60.40;;;;;;4999000;28;19910;-68
2023/05/30 13:19:29;;;;;;;;;;;24.90;58.30;;;;;;4996424;28;19913;-68
2023/05/30 13:21:54;;;;;;;;;;;24.90;58.40;;;;;;4997135;28;19906;-69
2023/05/30 13:24:20;;;;;;;;;;;24.90;58.20;;;;;;4998714;28;19906;-68
2023/05/30 13:26:45;;;;;;;;;;;24.80;58.10;;;;;;4998802;28;19906;-69
2023/05/30 13:29:11;;;;;;;;;;;24.90;58.10;;;;;;4997996;28;19945;-68
2023/05/30 13:31:36;;;;;;;;;;;25.10;57.70;;;;;;4996672;28;20362;-69
2023/05/30 13:34:02;;;;;;;;;;;25.10;55.50;;;;;;4998330;28;19956;-67
2023/05/30 13:36:28;;;;;;;;;;;25.00;56.20;;;;;;4997317;28;19910;-68
2023/05/30 13:38:56;;;;;;;;;;;24.90;57.50;;;;;;4995613;28;20657;-64
2023/05/30 13:41:21;;;;;;;;;;;25.00;58.30;;;;;;4995628;28;20367;-64
2023/05/30 13:43:47;;;;;;;;;;;25.10;57.80;;;;;;4996342;28;19910;-66
2023/05/30 13:46:13;;;;;;;;;;;25.20;58.00;;;;;;4995390;28;19989;-66
2023/05/30 13:48:38;;;;;;;;;;;25.10;57.80;;;;;;4993208;28;20363;-66
2023/05/30 13:51:04;;;;;;;;;;;25.10;57.60;;;;;;4992542;28;19914;-66
2023/05/30 13:53:29;;;;;;;;;;;25.00;57.00;;;;;;4992306;28;20005;-66
2023/05/30 13:55:55;;;;;;;;;;;24.90;57.10;;;;;;4991638;28;19971;-66
2023/05/30 13:58:21;;;;;;;;;;;25.00;58.00;;;;;;4991358;28;19914;-66
2023/05/30 14:00:47;;;;;;;;;;;24.90;58.50;;;;;;4992264;28;19932;-67
2023/05/30 14:03:13;;;;;;;;;;;24.90;58.40;;;;;;4992470;28;19910;-66
2023/05/30 14:05:39;;;;;;;;;;;25.00;57.60;;;;;;4994115;28;19920;-66
2023/05/30 14:08:04;;;;;;;;;;;25.20;57.10;;;;;;4995306;28;19917;-67
2023/05/30 14:10:30;;;;;;;;;;;25.30;56.60;;;;;;4993423;28;19910;-67
2023/05/30 14:12:56;;;;;;;;;;;25.30;55.70;;;;;;4994931;28;19972;-67
2023/05/30 14:15:22;;;;;;;;;;;25.20;55.60;;;;;;4995003;28;19921;-67
2023/05/30 14:17:47;;;;;;;;;;;25.20;55.70;;;;;;4995137;28;19914;-67
2023/05/30 14:20:13;;;;;;;;;;;25.20;55.90;;;;;;4994313;28;19917;-67
2023/05/30 14:22:39;;;;;;;;;;;25.20;56.40;;;;;;4994460;28;19910;-67
2023/05/30 14:25:05;;;;;;;;;;;25.20;56.40;;;;;;4995600;28;19910;-66
2023/05/30 14:27:31;;;;;;;;;;;25.10;56.00;;;;;;4994312;28;20448;-66
2023/05/30 14:29:57;;;;;;;;;;;25.00;56.00;;;;;;4993459;28;19910;-66
2023/05/30 14:32:23;;;;;;;;;;;25.10;55.80;;;;;;4994694;28;19917;-67
2023/05/30 14:34:48;;;;;;;;;;;25.10;55.90;;;;;;4995854;28;19917;-66
2023/05/30 14:37:14;;;;;;;;;;;25.10;55.40;;;;;;4994220;28;19921;-67
2023/05/30 14:39:39;;;;;;;;;;;25.10;55.70;;;;;;4996102;28;20382;-67
2023/05/30 14:42:06;;;;;;;;;;;25.20;56.50;;;;;;4997459;28;19910;-67
2023/05/30 14:44:31;;;;;;;;;;;25.10;56.50;;;;;;4996953;28;20294;-66
2023/05/30 14:47:00;;;;;;;;;;;25.10;56.10;;;;;;4998852;28;19969;-68
2023/05/30 14:49:27;;;;;;;;;;;25.10;56.00;;;;;;4998326;28;19910;-68
2023/05/30 14:51:53;;;;;;;;;;;25.10;56.00;;;;;;4998659;28;19910;-67
2023/05/30 14:54:19;;;;;;;;;;;25.00;55.40;;;;;;5000260;28;19910;-68
2023/05/30 14:56:47;;;;;;;;;;;24.90;54.40;;;;;;5000140;28;19921;-67
2023/05/30 14:59:12;;;;;;;;;;;24.90;54.30;;;;;;4997208;28;19917;-66
2023/05/30 15:01:38;;;;;;;;;;;24.90;55.30;;;;;;4995752;28;19914;-67
2023/05/30 15:04:04;;;;;;;;;;;24.90;54.80;;;;;;4995957;28;19940;-65
2023/05/30 15:06:30;;;;;;;;;;;24.90;55.50;;;;;;4998202;28;19917;-68
2023/05/30 15:08:55;;;;;;;;;;;24.90;55.80;;;;;;4997001;28;19913;-68
2023/05/30 15:11:22;;;;;;;;;;;24.90;55.50;;;;;;4995927;28;20355;-69
2023/05/30 15:13:47;;;;;;;;;;;24.80;54.80;;;;;;4996237;28;19925;-68
2023/05/30 15:16:13;;;;;;;;;;;24.80;55.00;;;;;;4996986;28;19910;-68
2023/05/30 15:18:38;;;;;;;;;;;24.80;54.30;;;;;;4996232;28;19917;-68
2023/05/30 15:21:03;;;;;;;;;;;24.90;54.00;;;;;;4997566;28;19921;-68
2023/05/30 15:23:29;;;;;;;;;;;24.80;54.00;;;;;;4997145;28;19936;-68
2023/05/30 15:25:54;;;;;;;;;;;24.90;54.10;;;;;;4997242;28;19910;-68
2023/05/30 15:28:20;;;;;;;;;;;24.90;54.00;;;;;;4995819;28;20275;-68
2023/05/30 15:30:45;;;;;;;;;;;25.00;54.10;;;;;;4996974;28;19972;-68
2023/05/30 15:33:11;;;;;;;;;;;25.00;54.30;;;;;;4996849;28;19910;-67
2023/05/30 15:35:36;;;;;;;;;;;24.80;54.90;;;;;;4995372;28;19978;-67
2023/05/30 15:38:02;;;;;;;;;;;24.80;54.80;;;;;;4997172;28;19921;-67
2023/05/30 15:40:28;;;;;;;;;;;24.70;54.60;;;;;;4997021;28;19934;-67
2023/05/30 15:42:54;;;;;;;;;;;24.70;55.00;;;;;;4996281;28;19913;-69
2023/05/30 15:45:19;;;;;;;;;;;24.60;55.40;;;;;;4995148;28;19964;-69
2023/05/30 15:47:45;;;;;;;;;;;24.60;55.00;;;;;;4996565;28;20286;-68
2023/05/30 15:50:11;;;;;;;;;;;24.60;55.40;;;;;;4996462;28;19917;-71
2023/05/30 15:52:37;;;;;;;;;;;24.60;55.10;;;;;;4996606;28;19910;-66
2023/05/30 15:55:02;;;;;;;;;;;24.60;53.90;;;;;;4996481;28;19941;-67
2023/05/30 15:57:28;;;;;;;;;;;24.60;53.90;;;;;;4996418;28;20343;-66
2023/05/30 15:59:54;;;;;;;;;;;24.60;54.20;;;;;;4995822;28;19913;-65
2023/05/30 16:02:20;;;;;;;;;;;24.50;55.00;;;;;;4996011;28;19909;-67
2023/05/30 16:04:45;;;;;;;;;;;24.50;53.90;;;;;;4995302;28;19914;-67
2023/05/30 16:07:11;;;;;;;;;;;24.40;54.20;;;;;;4995879;28;19910;-66
2023/05/30 16:09:38;;;;;;;;;;;24.50;54.60;;;;;;4996145;28;19910;-67
2023/05/30 16:12:05;;;;;;;;;;;24.40;54.40;;;;;;4995816;28;20397;-66
2023/05/30 16:14:30;;;;;;;;;;;24.30;54.80;;;;;;4995831;28;19949;-66
2023/05/30 16:16:56;;;;;;;;;;;24.30;54.90;;;;;;4995531;28;19957;-69
2023/05/30 16:19:21;;;;;;;;;;;24.30;54.90;;;;;;4996597;28;19910;-69
2023/05/30 16:21:47;;;;;;;;;;;24.30;55.50;;;;;;4997201;28;20337;-73
2023/05/30 16:24:12;;;;;;;;;;;24.40;55.40;;;;;;4996016;28;19921;-72
2023/05/30 16:26:38;;;;;;;;;;;24.30;55.60;;;;;;4984327;28;19914;-70
2023/05/30 16:29:03;;;;;;;;;;;24.30;55.40;;;;;;4980557;28;19914;-69
2023/05/30 16:31:29;;;;;;;;;;;24.30;55.80;;;;;;4997213;28;19935;-69
2023/05/30 16:33:55;;;;;;;;;;;24.30;56.30;;;;;;4997084;28;19916;-69
2023/05/30 16:36:21;;;;;;;;;;;24.30;56.60;;;;;;4996839;28;19921;-69
2023/05/30 16:38:47;;;;;;;;;;;24.30;56.20;;;;;;4995486;28;20425;-69
2023/05/30 16:41:12;;;;;;;;;;;24.30;56.30;;;;;;4996466;28;19909;-69
2023/05/30 16:43:38;;;;;;;;;;;24.30;56.60;;;;;;4997663;28;19910;-69
2023/05/30 16:46:04;;;;;;;;;;;24.30;56.10;;;;;;4994798;28;19965;-69
2023/05/30 16:48:29;;;;;;;;;;;24.20;55.80;;;;;;4994062;28;19910;-69
2023/05/30 16:50:55;;;;;;;;;;;24.20;56.20;;;;;;4996001;28;19910;-69
2023/05/30 16:53:20;;;;;;;;;;;24.20;56.10;;;;;;4994867;28;19910;-68
2023/05/30 16:55:47;;;;;;;;;;;24.10;56.00;;;;;;4995299;28;19917;-69
2023/05/30 16:58:12;;;;;;;;;;;24.10;55.80;;;;;;4998959;28;20282;-69
2023/05/30 17:00:38;;;;;;;;;;;24.00;55.40;;;;;;4980094;28;19916;-71
2023/05/30 17:03:03;;;;;;;;;;;24.00;55.60;;;;;;4977977;28;20335;-70
2023/05/30 17:05:29;;;;;;;;;;;23.90;55.60;;;;;;4977339;28;19910;-67
2023/05/30 17:07:55;;;;;;;;;;;23.90;56.00;;;;;;4985290;28;20051;-71
2023/05/30 17:10:20;;;;;;;;;;;23.80;56.10;;;;;;4975994;28;19922;-69
2023/05/30 17:12:47;;;;;;;;;;;23.80;56.30;;;;;;4981287;28;19972;-67
2023/05/30 17:15:12;;;;;;;;;;;23.90;56.20;;;;;;4992402;28;19972;-68
2023/05/30 17:17:38;;;;;;;;;;;23.80;56.50;;;;;;4995145;28;19918;-71
2023/05/30 17:20:04;;;;;;;;;;;23.80;56.80;;;;;;5002102;28;19971;-67
2023/05/30 17:22:30;;;;;;;;;;;23.70;56.40;;;;;;5003446;28;19910;-69
2023/05/30 17:24:57;;;;;;;;;;;23.70;56.70;;;;;;5008584;28;19909;-70
2023/05/30 17:27:22;;;;;;;;;;;23.70;55.90;;;;;;4996113;28;19945;-68
2023/05/30 17:29:48;;;;;;;;;;;23.70;55.90;;;;;;4999310;28;19952;-68
2023/05/30 17:32:13;;;;;;;;;;;23.70;56.00;;;;;;5003790;28;19914;-68
2023/05/30 17:34:39;;;;;;;;;;;23.70;55.70;;;;;;5006558;28;20060;-68
2023/05/30 17:37:05;;;;;;;;;;;23.60;55.60;;;;;;4998468;28;19921;-69
2023/05/30 17:39:30;;;;;;;;;;;23.60;55.60;;;;;;4990700;28;20001;-68
2023/05/30 17:41:56;;;;;;;;;;;23.60;54.90;;;;;;4995130;28;19921;-67
2023/05/30 17:44:22;;;;;;;;;;;23.50;55.10;;;;;;4994164;28;19916;-68
2023/05/30 17:46:47;;;;;;;;;;;23.50;55.10;;;;;;4991990;28;19918;-67
2023/05/30 17:49:12;;;;;;;;;;;23.40;54.50;;;;;;4988351;28;19917;-67
2023/05/30 17:51:38;;;;;;;;;;;23.30;54.90;;;;;;4975741;28;20327;-66
2023/05/30 17:54:04;;;;;;;;;;;23.30;54.40;;;;;;4976009;28;20012;-68
2023/05/30 17:56:32;;;;;;;;;;;23.30;54.40;;;;;;4976093;28;19916;-69
2023/05/30 17:58:59;;;;;;;;;;;23.30;53.90;;;;;;4975362;28;20334;-67
2023/05/30 18:01:24;;;;;;;;;;;23.20;53.90;;;;;;4975012;28;19914;-67
2023/05/30 18:03:50;;;;;;;;;;;23.20;53.20;;;;;;4973454;28;19910;-67
2023/05/30 18:06:16;;;;;;;;;;;23.20;52.80;;;;;;4990639;28;20382;-67
2023/05/30 18:08:41;;;;;;;;;;;23.20;52.70;;;;;;4974717;28;19910;-67
2023/05/30 18:11:07;;;;;;;;;;;23.20;52.90;;;;;;4989025;28;19917;-67